Time;durP1;ratioP1;P1;durP2;ratioP2;P2;SDS_P1;SDS_P2;PMS_P1;PMS_P2;Temp;Humidity;BMP_temperature;BMP_pressure;BME280_temperature;BME280_humidity;BME280_pressure;Samples;Min_cycle;Max_cycle;Signal;HPM_P1;HPM_P2
2023/06/23 00:00:55;;;;;;;13.82;11.93;;;;;;;20.48;67.59;95316.09;5085614;28;20564;-76
2023/06/23 00:03:20;;;;;;;16.05;12.05;;;;;;;20.47;67.74;95318.09;5085471;28;20487;-76
2023/06/23 00:05:46;;;;;;;13.90;12.45;;;;;;;20.44;67.51;95319.06;5084787;28;20081;-76
2023/06/23 00:08:11;;;;;;;14.65;12.48;;;;;;;20.40;67.70;95316.50;5084558;28;20024;-76
2023/06/23 00:10:37;;;;;;;14.52;12.10;;;;;;;20.37;67.82;95306.31;5086316;28;20591;-75
2023/06/23 00:13:05;;;;;;;13.57;11.90;;;;;;;20.35;67.33;95314.41;5083655;28;20501;-75
2023/06/23 00:15:31;;;;;;;16.50;11.73;;;;;;;20.36;67.40;95309.63;5085530;28;20031;-75
2023/06/23 00:17:56;;;;;;;15.82;12.05;;;;;;;20.35;67.48;95319.22;5088430;28;20029;-75
2023/06/23 00:20:22;;;;;;;14.55;11.20;;;;;;;20.30;67.42;95314.34;5088647;28;20039;-75
2023/06/23 00:22:47;;;;;;;14.95;10.82;;;;;;;20.33;67.11;95313.38;5088128;28;20104;-76
2023/06/23 00:25:13;;;;;;;13.43;11.40;;;;;;;20.28;66.97;95306.47;5088162;28;20028;-75
2023/06/23 00:27:39;;;;;;;12.40;10.85;;;;;;;20.23;67.13;95304.38;5088375;28;20443;-75
2023/06/23 00:30:06;;;;;;;14.45;11.13;;;;;;;20.21;67.33;95312.50;5088216;28;20376;-75
2023/06/23 00:32:32;;;;;;;14.93;10.93;;;;;;;20.14;67.22;95299.75;5089727;28;20028;-75
2023/06/23 00:34:58;;;;;;;12.13;10.85;;;;;;;20.17;67.51;95307.13;5087215;28;20563;-76
2023/06/23 00:37:23;;;;;;;12.05;10.40;;;;;;;20.20;67.44;95310.22;5087018;28;20490;-75
2023/06/23 00:39:48;;;;;;;14.75;11.90;;;;;;;20.15;67.85;95303.31;5089337;28;20031;-75
2023/06/23 00:42:14;;;;;;;14.60;11.88;;;;;;;20.14;67.77;95310.16;5087948;28;20035;-75
2023/06/23 00:44:39;;;;;;;12.50;10.90;;;;;;;20.12;67.75;95304.28;5089247;28;20024;-75
2023/06/23 00:47:05;;;;;;;12.82;10.45;;;;;;;20.07;67.84;95316.13;5087419;28;20099;-75
2023/06/23 00:49:30;;;;;;;15.90;11.25;;;;;;;20.08;67.97;95315.66;5087638;28;20024;-76
2023/06/23 00:51:58;;;;;;;13.45;10.57;;;;;;;20.08;67.65;95303.75;5088017;28;20487;-75
2023/06/23 00:54:24;;;;;;;14.57;10.82;;;;;;;20.02;67.99;95300.88;5086875;28;20063;-75
2023/06/23 00:56:49;;;;;;;14.85;11.27;;;;;;;20.01;68.00;95313.28;5088510;28;20046;-75
2023/06/23 00:59:15;;;;;;;16.05;10.65;;;;;;;20.03;67.97;95312.81;5087748;28;20020;-75
2023/06/23 01:01:40;;;;;;;12.68;11.05;;;;;;;19.97;67.97;95309.97;5088768;28;20024;-75
2023/06/23 01:04:08;;;;;;;14.57;10.93;;;;;;;19.91;68.19;95302.78;5087716;28;20027;-75
2023/06/23 01:06:39;;;;;;;14.02;11.18;;;;;;;19.95;68.15;95308.91;5088828;28;20035;-75
2023/06/23 01:09:15;;;;;;;14.10;10.93;;;;;;;19.91;68.44;95308.38;5087773;28;20106;-75
2023/06/23 01:11:49;;;;;;;13.48;11.02;;;;;;;19.87;68.18;95319.72;5087985;28;20020;-75
2023/06/23 01:14:45;;;;;;;16.73;11.20;;;;;;;19.86;68.18;95316.16;5070009;28;20077;-76
2023/06/23 01:17:17;;;;;;;15.65;11.13;;;;;;;19.84;68.46;95307.53;5083834;28;20047;-76
2023/06/23 01:20:17;;;;;;;13.35;11.60;;;;;;;19.82;68.50;95312.03;5087422;28;20039;-75
2023/06/23 01:22:51;;;;;;;16.63;12.23;;;;;;;19.79;68.90;95310.25;5087042;28;20032;-75
2023/06/23 01:25:25;;;;;;;14.82;12.65;;;;;;;19.76;69.10;95302.84;5086016;28;20488;-75
2023/06/23 01:27:57;;;;;;;13.77;12.38;;;;;;;19.76;69.17;95303.63;5088146;28;20077;-75
2023/06/23 01:30:27;;;;;;;14.43;12.35;;;;;;;19.74;68.90;95294.97;5086937;28;20660;-75
2023/06/23 01:32:59;;;;;;;15.77;13.20;;;;;;;19.71;69.07;95292.38;5086752;28;20025;-75
2023/06/23 01:35:27;;;;;;;15.68;12.52;;;;;;;19.75;69.21;95309.69;5086641;28;20024;-75
2023/06/23 01:37:57;;;;;;;15.45;12.90;;;;;;;19.72;68.81;95300.25;5086181;28;20024;-75
2023/06/23 01:40:24;;;;;;;16.85;13.50;;;;;;;19.68;68.93;95299.72;5086675;28;20028;-75
2023/06/23 01:42:52;;;;;;;15.68;13.43;;;;;;;19.67;69.02;95309.34;5085440;28;20419;-73
2023/06/23 01:45:21;;;;;;;16.20;12.77;;;;;;;19.66;69.16;95307.78;5086694;28;20020;-75
2023/06/23 01:47:50;;;;;;;14.68;13.18;;;;;;;19.61;68.99;95300.91;5086591;28;20156;-75
2023/06/23 01:50:18;;;;;;;17.80;13.88;;;;;;;19.63;69.08;95303.19;5085923;28;20089;-75
2023/06/23 01:52:44;;;;;;;14.15;12.65;;;;;;;19.62;68.53;95302.44;5086234;28;20028;-76
2023/06/23 01:55:11;;;;;;;14.70;12.65;;;;;;;19.58;69.06;95307.44;5085126;28;20044;-76
2023/06/23 01:57:36;;;;;;;13.63;12.23;;;;;;;19.57;68.85;95299.53;5086380;28;20490;-75
2023/06/23 02:00:05;;;;;;;15.15;12.90;;;;;;;19.52;69.02;95303.78;5085117;28;20058;-76
2023/06/23 02:02:31;;;;;;;15.82;13.00;;;;;;;19.54;68.67;95312.44;5086606;28;20054;-75
2023/06/23 02:04:58;;;;;;;16.60;13.27;;;;;;;19.51;68.98;95312.66;5086820;28;20035;-76
2023/06/23 02:07:24;;;;;;;14.32;12.80;;;;;;;19.48;69.23;95316.41;5085954;28;20032;-76
2023/06/23 02:09:50;;;;;;;15.75;13.02;;;;;;;19.38;69.23;95310.16;5087135;28;20039;-76
2023/06/23 02:12:16;;;;;;;13.40;12.02;;;;;;;19.43;69.21;95312.28;5085216;28;20228;-76
2023/06/23 02:14:43;;;;;;;15.10;13.57;;;;;;;19.42;69.31;95305.16;5086370;28;20467;-76
2023/06/23 02:17:10;;;;;;;15.30;12.90;;;;;;;19.35;69.32;95298.00;5084611;28;20152;-76
2023/06/23 02:19:41;;;;;;;16.75;13.60;;;;;;;19.32;69.02;95298.19;5086232;28;20028;-76
2023/06/23 02:22:12;;;;;;;16.75;12.68;;;;;;;19.26;68.94;95291.75;5086054;28;20020;-76
2023/06/23 02:24:39;;;;;;;15.55;13.55;;;;;;;19.34;69.25;95301.28;5085708;28;20055;-75
2023/06/23 02:27:05;;;;;;;14.63;12.48;;;;;;;19.31;68.93;95308.56;5085075;28;20027;-75
2023/06/23 02:29:34;;;;;;;13.82;11.60;;;;;;;19.31;69.38;95307.81;5086306;28;20473;-75
2023/06/23 02:31:59;;;;;;;16.90;13.52;;;;;;;19.27;69.24;95302.44;5086586;28;20476;-75
2023/06/23 02:34:25;;;;;;;14.95;12.27;;;;;;;19.26;69.65;95297.34;5084645;28;20075;-75
2023/06/23 02:36:55;;;;;;;15.20;13.60;;;;;;;19.24;69.54;95305.44;5087021;28;20028;-75
2023/06/23 02:39:22;;;;;;;14.63;13.13;;;;;;;19.21;69.53;95312.75;5084294;28;20073;-75
2023/06/23 02:41:54;;;;;;;17.95;13.75;;;;;;;19.22;69.63;95316.31;5086014;28;20509;-74
2023/06/23 02:44:26;;;;;;;16.70;13.90;;;;;;;19.21;69.60;95317.53;5085247;28;20028;-75
2023/06/23 02:46:56;;;;;;;15.38;13.02;;;;;;;19.18;70.14;95316.50;5084485;28;20485;-75
2023/06/23 02:49:23;;;;;;;17.27;14.13;;;;;;;19.16;70.13;95309.88;5085023;28;20035;-74
2023/06/23 02:51:51;;;;;;;18.88;13.77;;;;;;;19.16;70.13;95305.06;5085400;28;20077;-76
2023/06/23 02:54:17;;;;;;;15.57;12.98;;;;;;;19.16;70.25;95309.88;5085476;28;20073;-75
2023/06/23 02:56:44;;;;;;;19.20;13.82;;;;;;;19.17;70.05;95308.63;5084309;28;20032;-75
2023/06/23 02:59:16;;;;;;;15.60;12.88;;;;;;;19.15;69.94;95309.09;5084873;28;20085;-75
2023/06/23 03:01:44;;;;;;;16.20;12.70;;;;;;;19.15;69.50;95299.97;5085023;28;20024;-75
2023/06/23 03:04:11;;;;;;;19.27;14.20;;;;;;;19.15;69.71;95292.38;5084242;28;20023;-75
2023/06/23 03:06:39;;;;;;;15.20;12.50;;;;;;;19.13;69.43;95297.66;5086518;28;20028;-75
2023/06/23 03:09:06;;;;;;;17.15;13.02;;;;;;;19.13;69.50;95297.66;5085694;28;20074;-75
2023/06/23 03:11:32;;;;;;;15.60;13.23;;;;;;;19.13;69.31;95294.88;5086810;28;20032;-74
2023/06/23 03:13:58;;;;;;;15.73;12.88;;;;;;;19.10;69.34;95291.06;5085550;28;20028;-75
2023/06/23 03:16:59;;;;;;;19.63;13.75;;;;;;;19.15;69.44;95309.09;5084697;28;20461;-75
2023/06/23 03:20:05;;;;;;;16.23;12.55;;;;;;;19.15;69.66;95308.31;5083551;28;20031;-75
2023/06/23 03:22:47;;;;;;;15.63;12.45;;;;;;;19.09;69.94;95288.72;5066016;28;20043;-74
2023/06/23 03:25:16;;;;;;;15.40;13.90;;;;;;;19.13;69.64;95302.47;5066332;28;20474;-74
2023/06/23 03:27:43;;;;;;;18.55;13.55;;;;;;;19.01;70.01;95285.59;5066641;28;20494;-74
2023/06/23 03:30:16;;;;;;;20.95;14.00;;;;;;;19.13;69.98;95305.25;5082667;28;20027;-75
2023/06/23 03:32:43;;;;;;;16.38;13.60;;;;;;;19.14;69.85;95304.78;5083811;28;20040;-74
2023/06/23 03:35:15;;;;;;;16.27;14.02;;;;;;;19.17;70.07;95309.38;5065558;28;20040;-75
2023/06/23 03:37:47;;;;;;;16.20;13.05;;;;;;;19.14;70.10;95304.78;5083533;28;20044;-75
2023/06/23 03:40:14;;;;;;;18.95;14.30;;;;;;;19.20;70.34;95305.63;5083013;28;20039;-75
2023/06/23 03:42:44;;;;;;;17.13;14.57;;;;;;;19.18;70.20;95305.34;5066098;28;20043;-75
2023/06/23 03:45:12;;;;;;;21.75;14.50;;;;;;;19.21;70.49;95307.19;5083130;28;20089;-75
2023/06/23 03:47:38;;;;;;;18.42;14.75;;;;;;;19.23;70.36;95309.47;5065469;28;20171;-75
2023/06/23 03:50:09;;;;;;;18.83;14.48;;;;;;;19.27;70.23;95304.47;5066502;28;20062;-76
2023/06/23 03:52:37;;;;;;;20.33;15.30;;;;;;;19.29;70.55;95301.97;5084805;28;20028;-76
2023/06/23 03:55:03;;;;;;;24.15;15.20;;;;;;;19.29;70.36;95311.06;5070071;28;20102;-75
2023/06/23 03:57:31;;;;;;;18.27;15.35;;;;;;;19.33;70.71;95308.88;5072890;28;20507;-76
2023/06/23 03:59:57;;;;;;;20.80;16.65;;;;;;;19.37;70.76;95311.44;5076709;28;20040;-76
2023/06/23 04:02:23;;;;;;;18.10;15.90;;;;;;;19.39;70.62;95317.31;5076587;28;20138;-76
2023/06/23 04:04:50;;;;;;;21.67;16.23;;;;;;;19.42;70.46;95318.34;5085198;28;20024;-75
2023/06/23 04:07:17;;;;;;;20.73;15.45;;;;;;;19.42;70.70;95319.09;5066207;28;20071;-75
2023/06/23 04:09:47;;;;;;;19.38;15.30;;;;;;;19.43;70.09;95314.28;5067126;28;20056;-76
2023/06/23 04:12:15;;;;;;;21.33;16.70;;;;;;;19.47;70.42;95315.63;5067551;28;20029;-75
2023/06/23 04:14:43;;;;;;;19.83;15.63;;;;;;;19.48;70.62;95319.19;5079553;28;20100;-76
2023/06/23 04:17:09;;;;;;;20.08;15.35;;;;;;;19.54;70.52;95322.81;5067169;28;20163;-75
2023/06/23 04:19:36;;;;;;;18.48;16.10;;;;;;;19.55;70.04;95321.56;5073928;28;20059;-75
2023/06/23 04:22:06;;;;;;;20.15;15.73;;;;;;;19.63;70.07;95320.69;5083564;28;20746;-76
2023/06/23 04:24:33;;;;;;;18.25;15.90;;;;;;;19.64;70.31;95318.69;5085077;28;20031;-75
2023/06/23 04:27:00;;;;;;;19.88;16.83;;;;;;;19.70;69.82;95327.88;5066348;28;20047;-76
2023/06/23 04:29:26;;;;;;;18.55;16.33;;;;;;;19.72;70.13;95324.59;5083632;28;20039;-76
2023/06/23 04:31:54;;;;;;;21.65;17.58;;;;;;;19.78;69.98;95331.78;5072457;28;20039;-76
2023/06/23 04:34:19;;;;;;;19.35;16.80;;;;;;;19.78;70.24;95326.19;5067594;28;20521;-76
2023/06/23 04:36:52;;;;;;;21.10;17.00;;;;;;;19.82;69.71;95328.78;5066746;28;20025;-76
2023/06/23 04:39:27;;;;;;;21.25;17.77;;;;;;;19.85;69.76;95322.25;5066488;28;20025;-75
2023/06/23 04:41:56;;;;;;;21.70;17.42;;;;;;;19.85;69.80;95316.66;5067708;28;20506;-74
2023/06/23 04:44:27;;;;;;;26.23;17.30;;;;;;;19.94;69.94;95321.31;5049542;28;20032;-75
2023/06/23 04:46:54;;;;;;;21.80;17.02;;;;;;;19.94;69.57;95324.09;5068664;28;20031;-76
2023/06/23 04:49:21;;;;;;;27.52;17.92;;;;;;;19.98;69.56;95327.47;5066526;28;20036;-75
2023/06/23 04:51:50;;;;;;;22.33;18.40;;;;;;;20.01;69.56;95329.25;5066474;28;20491;-75
2023/06/23 04:54:22;;;;;;;20.63;17.70;;;;;;;19.99;69.49;95321.38;5068164;28;20029;-75
2023/06/23 04:56:49;;;;;;;22.25;18.13;;;;;;;20.13;69.46;95334.50;5066102;28;20028;-75
2023/06/23 04:59:18;;;;;;;24.27;17.92;;;;;;;20.13;69.50;95328.16;5067346;28;20082;-75
2023/06/23 05:01:45;;;;;;;20.17;17.65;;;;;;;20.19;69.25;95328.22;5066282;28;20033;-76
2023/06/23 05:04:11;;;;;;;18.02;15.80;;;;;;;20.20;69.53;95333.31;5065640;28;20500;-75
2023/06/23 05:06:38;;;;;;;25.00;17.23;;;;;;;20.31;69.29;95338.25;5066713;28;20175;-74
2023/06/23 05:09:04;;;;;;;22.65;17.13;;;;;;;20.32;69.34;95331.41;5066260;28;20023;-74
2023/06/23 05:11:31;;;;;;;21.42;18.45;;;;;;;20.39;69.14;95337.31;5066921;28;20090;-76
2023/06/23 05:13:56;;;;;;;19.67;17.55;;;;;;;20.41;68.93;95337.59;5067250;28;20403;-75
2023/06/23 05:16:22;;;;;;;22.00;17.92;;;;;;;20.47;68.66;95334.09;5067146;28;20055;-77
2023/06/23 05:18:50;;;;;;;21.27;18.85;;;;;;;20.55;68.68;95340.78;5066607;28;20040;-76
2023/06/23 05:21:16;;;;;;;23.98;18.98;;;;;;;20.60;68.30;95340.84;5066714;28;20106;-74
2023/06/23 05:23:44;;;;;;;21.50;17.15;;;;;;;20.59;68.46;95344.91;5065944;28;20046;-76
2023/06/23 05:26:12;;;;;;;25.25;18.27;;;;;;;20.65;68.11;95350.53;5065889;28;20499;-76
2023/06/23 05:28:38;;;;;;;25.00;18.75;;;;;;;20.72;67.65;95350.09;5066651;28;20025;-76
2023/06/23 05:31:05;;;;;;;23.38;18.40;;;;;;;20.73;67.80;95350.88;5065793;28;20086;-76
2023/06/23 05:33:33;;;;;;;24.20;18.83;;;;;;;20.72;67.50;95350.09;5067972;28;20029;-75
2023/06/23 05:35:59;;;;;;;24.23;19.13;;;;;;;20.74;67.92;95355.19;5065464;28;20024;-76
2023/06/23 05:38:26;;;;;;;25.23;19.80;;;;;;;20.81;67.53;95361.09;5066503;28;20073;-76
2023/06/23 05:40:52;;;;;;;23.52;19.15;;;;;;;20.83;67.77;95361.38;5065815;28;20104;-74
2023/06/23 05:43:17;;;;;;;21.00;18.73;;;;;;;20.92;67.73;95354.84;5067098;28;20116;-76
2023/06/23 05:45:42;;;;;;;28.15;19.48;;;;;;;21.00;67.74;95358.72;5067155;28;20100;-75
2023/06/23 05:48:17;;;;;;;21.40;19.10;;;;;;;21.03;67.67;95366.09;5064351;28;20029;-75
2023/06/23 05:50:43;;;;;;;21.63;17.98;;;;;;;21.07;67.59;95357.50;5067471;28;20032;-75
2023/06/23 05:53:20;;;;;;;23.90;19.05;;;;;;;21.12;67.16;95360.34;5064959;28;20103;-75
2023/06/23 05:56:02;;;;;;;25.35;19.92;;;;;;;21.24;66.98;95360.44;5066070;28;20144;-74
2023/06/23 05:58:32;;;;;;;23.35;19.27;;;;;;;21.29;66.57;95363.31;5065480;28;20031;-75
2023/06/23 06:00:58;;;;;;;24.65;19.92;;;;;;;21.36;67.03;95370.47;5065116;28;20021;-76
2023/06/23 06:03:30;;;;;;;26.38;20.05;;;;;;;21.41;66.67;95375.34;5065772;28;20056;-75
2023/06/23 06:05:56;;;;;;;26.30;19.83;;;;;;;21.49;66.36;95373.59;5064550;28;20482;-75
2023/06/23 06:08:23;;;;;;;24.60;19.40;;;;;;;21.56;66.35;95372.34;5066270;28;20039;-76
2023/06/23 06:10:50;;;;;;;25.10;18.95;;;;;;;21.57;65.97;95371.13;5064904;28;20082;-76
2023/06/23 06:13:16;;;;;;;25.33;20.20;;;;;;;21.62;65.88;95359.97;5065333;28;20487;-76
2023/06/23 06:15:43;;;;;;;24.48;20.50;;;;;;;21.70;65.98;95363.06;5065276;28;20096;-77
2023/06/23 06:18:09;;;;;;;25.58;19.63;;;;;;;21.79;65.89;95359.28;5064323;28;20036;-76
2023/06/23 06:20:34;;;;;;;23.55;20.13;;;;;;;21.82;65.23;95359.03;5067113;28;20020;-76
2023/06/23 06:23:02;;;;;;;25.45;20.70;;;;;;;21.87;65.47;95361.09;5064247;28;20517;-76
2023/06/23 06:25:28;;;;;;;23.83;19.42;;;;;;;21.94;65.20;95352.22;5066667;28;20576;-75
2023/06/23 06:27:55;;;;;;;27.45;19.13;;;;;;;22.01;65.33;95359.38;5063151;28;20029;-76
2023/06/23 06:30:21;;;;;;;24.70;19.70;;;;;;;22.05;65.22;95354.31;5065135;28;20044;-75
2023/06/23 06:32:47;;;;;;;24.70;19.08;;;;;;;22.15;64.49;95352.88;5066170;28;20025;-75
2023/06/23 06:35:13;;;;;;;24.98;19.85;;;;;;;22.26;64.06;95347.31;5064467;28;20033;-75
2023/06/23 06:37:42;;;;;;;25.55;19.70;;;;;;;22.34;63.60;95335.59;5066744;28;20037;-76
2023/06/23 06:40:10;;;;;;;23.40;19.77;;;;;;;22.39;63.03;95341.22;5064343;28;20095;-76
2023/06/23 06:42:36;;;;;;;25.48;19.02;;;;;;;22.38;63.07;95339.69;5065401;28;20039;-76
2023/06/23 06:45:03;;;;;;;26.27;19.80;;;;;;;22.49;63.26;95333.38;5065387;28;20027;-76
2023/06/23 06:47:29;;;;;;;24.50;19.00;;;;;;;22.57;63.58;95336.44;5064930;28;20032;-75
2023/06/23 06:49:55;;;;;;;20.55;17.95;;;;;;;22.63;63.32;95326.75;5064656;28;20054;-76
2023/06/23 06:52:21;;;;;;;23.20;17.38;;;;;;;22.71;62.96;95324.22;5064299;28;20040;-76
2023/06/23 06:54:46;;;;;;;19.38;17.25;;;;;;;22.78;62.68;95320.91;5064929;28;20044;-76
2023/06/23 06:57:12;;;;;;;21.02;17.02;;;;;;;22.88;62.23;95319.44;5065468;28;20039;-76
2023/06/23 06:59:37;;;;;;;19.83;16.88;;;;;;;22.98;61.76;95311.50;5066794;28;20481;-76
2023/06/23 07:02:03;;;;;;;25.20;18.25;;;;;;;23.06;61.53;95309.75;5063839;28;20032;-75
2023/06/23 07:04:29;;;;;;;18.88;16.85;;;;;;;23.13;61.31;95300.06;5065024;28;20035;-76
2023/06/23 07:06:55;;;;;;;20.85;17.02;;;;;;;23.25;61.25;95298.75;5065433;28;20020;-75
2023/06/23 07:09:20;;;;;;;24.13;17.48;;;;;;;23.32;60.94;95301.03;5065746;28;20399;-76
2023/06/23 07:11:49;;;;;;;21.65;17.50;;;;;;;23.40;60.92;95299.25;5065825;28;20025;-75
2023/06/23 07:14:15;;;;;;;20.02;15.80;;;;;;;23.46;60.52;95299.25;5065220;28;20520;-75
2023/06/23 07:16:40;;;;;;;20.33;16.80;;;;;;;23.53;60.12;95293.09;5065963;28;20050;-76
2023/06/23 07:19:06;;;;;;;20.98;16.60;;;;;;;23.67;59.43;95296.91;5065069;28;20025;-76
2023/06/23 07:21:32;;;;;;;20.88;16.23;;;;;;;23.74;58.91;95299.97;5066047;28;20032;-76
2023/06/23 07:23:58;;;;;;;21.25;16.05;;;;;;;23.78;58.85;95294.06;5063709;28;20031;-77
2023/06/23 07:26:23;;;;;;;20.38;15.68;;;;;;;23.90;56.86;95289.16;5066542;28;20016;-77
2023/06/23 07:28:48;;;;;;;18.27;14.32;;;;;;;23.88;57.88;95294.53;5069994;28;20426;-76
2023/06/23 07:31:14;;;;;;;16.23;14.45;;;;;;;24.04;57.26;95291.66;5069554;28;20036;-77
2023/06/23 07:33:41;;;;;;;18.77;15.90;;;;;;;24.08;57.23;95292.13;5069663;28;20016;-76
2023/06/23 07:36:06;;;;;;;18.98;14.90;;;;;;;24.19;57.36;95296.94;5069182;28;20494;-75
2023/06/23 07:38:31;;;;;;;17.25;15.25;;;;;;;24.25;57.25;95291.28;5068297;28;20060;-76
2023/06/23 07:40:57;;;;;;;16.48;14.75;;;;;;;24.36;57.24;95285.63;5069040;28;20028;-76
2023/06/23 07:43:22;;;;;;;20.95;16.10;;;;;;;24.52;56.52;95286.81;5070019;28;20430;-76
2023/06/23 07:45:47;;;;;;;19.42;15.57;;;;;;;24.66;56.05;95285.72;5069062;28;20021;-76
2023/06/23 07:48:13;;;;;;;17.95;15.43;;;;;;;24.71;55.56;95292.56;5067550;28;20390;-76
2023/06/23 07:50:38;;;;;;;20.75;15.43;;;;;;;24.76;55.37;95286.13;5067730;28;20017;-76
2023/06/23 07:53:04;;;;;;;19.23;14.00;;;;;;;24.84;55.00;95285.06;5068388;28;20028;-76
2023/06/23 07:55:29;;;;;;;21.95;16.80;;;;;;;24.90;54.09;95288.59;5068645;28;20420;-76
2023/06/23 07:57:55;;;;;;;20.30;15.30;;;;;;;24.99;53.81;95286.72;5067230;28;20104;-76
2023/06/23 08:00:20;;;;;;;20.60;14.45;;;;;;;25.01;53.59;95282.13;5069888;28;20571;-76
2023/06/23 08:02:46;;;;;;;17.17;14.57;;;;;;;25.06;54.21;95284.16;5068898;28;20035;-76
2023/06/23 08:05:11;;;;;;;19.95;15.77;;;;;;;25.20;54.22;95270.97;5069556;28;20517;-76
2023/06/23 08:07:37;;;;;;;20.52;15.05;;;;;;;25.32;53.68;95280.06;5068949;28;20028;-77
2023/06/23 08:10:03;;;;;;;18.58;14.68;;;;;;;25.49;52.88;95288.34;5067528;28;20526;-76
2023/06/23 08:12:28;;;;;;;19.95;15.45;;;;;;;25.55;52.60;95289.81;5069324;28;20025;-76
2023/06/23 08:14:53;;;;;;;18.83;14.77;;;;;;;25.60;52.73;95288.97;5068587;28;20025;-76
2023/06/23 08:17:19;;;;;;;17.17;15.38;;;;;;;25.71;51.63;95290.16;5069193;28;20100;-76
2023/06/23 08:19:44;;;;;;;19.80;15.52;;;;;;;25.81;51.23;95283.66;5067963;28;20055;-76
2023/06/23 08:22:10;;;;;;;18.45;15.10;;;;;;;25.82;50.96;95284.44;5069376;28;20103;-75
2023/06/23 08:24:35;;;;;;;16.42;13.85;;;;;;;25.89;51.19;95289.44;5068285;28;20029;-77
2023/06/23 08:27:01;;;;;;;17.42;13.63;;;;;;;25.94;50.82;95286.56;5069039;28;20539;-76
2023/06/23 08:29:26;;;;;;;15.30;13.50;;;;;;;26.04;49.38;95278.53;5068803;28;20117;-77
2023/06/23 08:31:51;;;;;;;14.77;12.07;;;;;;;26.10;49.70;95281.28;5068399;28;20416;-75
2023/06/23 08:34:18;;;;;;;16.45;12.25;;;;;;;26.15;49.45;95266.31;5068651;28;20074;-76
2023/06/23 08:36:43;;;;;;;15.32;11.93;;;;;;;26.26;48.73;95271.81;5067790;28;20021;-75
2023/06/23 08:39:10;;;;;;;15.50;11.98;;;;;;;26.35;48.63;95270.69;5068009;28;20028;-76
2023/06/23 08:41:39;;;;;;;13.95;11.63;;;;;;;26.46;48.23;95274.13;5067759;28;20491;-77
2023/06/23 08:44:05;;;;;;;14.88;12.30;;;;;;;26.62;47.81;95263.16;5069019;28;20032;-76
2023/06/23 08:46:34;;;;;;;13.52;10.85;;;;;;;26.67;47.56;95263.06;5066611;28;20509;-77
2023/06/23 08:49:05;;;;;;;16.70;11.75;;;;;;;26.74;48.15;95256.78;5067949;28;20032;-77
2023/06/23 08:51:32;;;;;;;14.07;11.30;;;;;;;26.90;48.73;95266.28;5068610;28;20051;-76
2023/06/23 08:53:57;;;;;;;13.60;12.20;;;;;;;27.05;47.49;95260.13;5066695;28;20024;-76
2023/06/23 08:56:23;;;;;;;15.25;11.80;;;;;;;27.13;47.31;95261.06;5068316;28;20051;-77
2023/06/23 08:58:48;;;;;;;14.48;11.32;;;;;;;27.26;45.94;95252.59;5066271;28;20040;-76
2023/06/23 09:01:14;;;;;;;12.55;10.57;;;;;;;27.35;45.58;95259.13;5068421;28;20071;-76
2023/06/23 09:03:39;;;;;;;15.68;10.40;;;;;;;27.37;44.98;95262.19;5068084;28;20032;-77
2023/06/23 09:06:04;;;;;;;15.93;10.80;;;;;;;27.44;45.56;95259.47;5066722;28;20050;-75
2023/06/23 09:08:30;;;;;;;16.77;11.57;;;;;;;27.63;45.84;95256.53;5067889;28;20233;-76
2023/06/23 09:10:56;;;;;;;16.10;11.35;;;;;;;27.71;45.07;95251.78;5067575;28;20032;-76
2023/06/23 09:13:30;;;;;;;15.68;11.15;;;;;;;27.79;44.61;95249.81;5068162;28;20073;-77
2023/06/23 09:15:56;;;;;;;13.50;10.88;;;;;;;27.97;43.46;95238.94;5065859;28;20028;-76
2023/06/23 09:18:21;;;;;;;14.43;10.45;;;;;;;28.07;43.67;95245.66;5068033;28;20063;-77
2023/06/23 09:20:50;;;;;;;12.20;10.90;;;;;;;28.17;43.88;95234.69;5067680;28;20028;-75
2023/06/23 09:23:19;;;;;;;11.55;9.82;;;;;;;28.31;44.02;95245.38;5067588;28;20469;-76
2023/06/23 09:25:54;;;;;;;14.43;10.95;;;;;;;28.36;44.14;95234.53;5067871;28;20542;-76
2023/06/23 09:28:31;;;;;;;14.60;10.80;;;;;;;28.55;43.31;95235.88;5067214;28;20523;-77
2023/06/23 09:30:58;;;;;;;13.32;10.38;;;;;;;28.69;41.84;95238.66;5068230;28;20044;-77
2023/06/23 09:33:25;;;;;;;11.25;9.27;;;;;;;28.75;41.90;95236.47;5065444;28;20012;-76
2023/06/23 09:35:53;;;;;;;11.00;9.40;;;;;;;28.84;41.66;95238.78;5066328;28;20568;-76
2023/06/23 09:38:24;;;;;;;11.57;9.50;;;;;;;28.95;40.83;95240.63;5067247;28;20421;-77
2023/06/23 09:41:06;;;;;;;10.48;9.15;;;;;;;29.10;39.77;95240.75;5065416;28;20920;-76
2023/06/23 09:43:56;;;;;;;9.77;8.32;;;;;;;29.17;40.34;95228.72;5067155;28;20028;-77
2023/06/23 09:46:24;;;;;;;15.45;9.07;;;;;;;29.28;40.60;95231.28;5065140;28;20071;-79
2023/06/23 09:48:50;;;;;;;10.32;7.82;;;;;;;29.41;39.45;95235.31;5065773;28;20036;-76
2023/06/23 09:51:19;;;;;;;9.88;8.50;;;;;;;29.55;39.06;95237.53;5064910;28;20116;-77
2023/06/23 09:53:44;;;;;;;9.30;8.00;;;;;;;29.67;38.49;95223.81;5065124;28;20474;-76
2023/06/23 09:56:14;;;;;;;11.63;8.07;;;;;;;29.81;38.94;95230.13;5066920;28;20120;-77
2023/06/23 09:58:41;;;;;;;9.55;7.85;;;;;;;30.03;36.60;95237.22;5064907;28;20078;-78
2023/06/23 10:01:15;;;;;;;9.50;7.20;;;;;;;30.12;36.33;95222.56;5067506;28;20021;-76
2023/06/23 10:03:48;;;;;;;7.60;6.45;;;;;;;30.27;34.50;95219.75;5065038;28;20082;-76
2023/06/23 10:06:29;;;;;;;9.20;6.95;;;;;;;30.46;34.98;95227.22;5066933;28;20031;-76
2023/06/23 10:08:59;;;;;;;10.18;8.00;;;;;;;30.55;35.62;95215.31;5067072;28;20028;-79
2023/06/23 10:11:34;;;;;;;10.68;7.90;;;;;;;30.72;36.49;95218.41;5066283;28;20050;-77
2023/06/23 10:14:05;;;;;;;10.10;7.28;;;;;;;30.87;34.88;95209.16;5067243;28;20029;-77
2023/06/23 10:16:32;;;;;;;9.30;7.63;;;;;;;30.91;34.50;95209.53;5066168;28;20511;-77
2023/06/23 10:18:57;;;;;;;8.60;7.32;;;;;;;31.03;35.00;95202.16;5067223;28;20031;-76
2023/06/23 10:21:23;;;;;;;11.93;7.28;;;;;;;31.14;35.13;95198.16;5064821;28;20021;-76
2023/06/23 10:23:50;;;;;;;11.10;7.53;;;;;;;31.33;35.38;95197.81;5066620;28;20020;-78
2023/06/23 10:26:17;;;;;;;11.25;6.78;;;;;;;31.47;34.11;95199.13;5066358;28;20035;-75
2023/06/23 10:28:45;;;;;;;11.18;7.50;;;;;;;31.63;34.71;95200.59;5066175;28;20025;-77
2023/06/23 10:31:12;;;;;;;8.02;6.47;;;;;;;31.74;32.88;95202.28;5065573;28;20020;-77
2023/06/23 10:33:38;;;;;;;11.63;6.63;;;;;;;31.79;32.75;95198.47;5065631;28;20029;-75
2023/06/23 10:36:08;;;;;;;8.43;5.85;;;;;;;31.84;32.55;95191.88;5065905;28;20131;-77
2023/06/23 10:38:34;;;;;;;8.00;6.35;;;;;;;31.98;32.56;95186.69;5065679;28;20029;-77
2023/06/23 10:41:00;;;;;;;8.32;7.05;;;;;;;32.09;32.52;95196.88;5048178;28;20031;-76
2023/06/23 10:43:33;;;;;;;10.00;7.10;;;;;;;32.23;32.78;95187.53;5063938;28;20461;-77
2023/06/23 10:45:59;;;;;;;;;;;;;;;32.41;31.95;95185.56;5065478;28;20479;-77
2023/06/23 10:48:25;;;;;;;7.18;6.47;;;;;;;32.52;32.00;95181.53;5065010;28;20462;-77
2023/06/23 10:50:51;;;;;;;10.35;7.32;;;;;;;32.65;32.04;95172.72;5047562;28;20219;-76
2023/06/23 10:53:18;;;;;;;9.65;7.38;;;;;;;32.84;31.99;95171.44;5066433;28;20024;-75
2023/06/23 10:55:45;;;;;;;10.70;7.70;;;;;;;33.00;31.87;95170.78;5064075;28;20044;-76
2023/06/23 10:58:13;;;;;;;8.60;6.97;;;;;;;33.10;31.47;95170.13;5066020;28;20063;-76
2023/06/23 11:00:39;;;;;;;9.38;7.80;;;;;;;33.12;31.81;95161.75;5065549;28;20025;-77
2023/06/23 11:03:06;;;;;;;14.65;7.38;;;;;;;33.25;31.23;95161.44;5065370;28;20017;-77
2023/06/23 11:05:31;;;;;;;10.50;7.25;;;;;;;33.35;31.45;95148.06;5064698;28;20044;-76
2023/06/23 11:08:04;;;;;;;9.40;7.10;;;;;;;33.54;30.79;95153.19;5065515;28;20089;-75
2023/06/23 11:10:47;;;;;;;9.30;7.28;;;;;;;33.49;30.79;95160.66;5066417;28;20032;-77
2023/06/23 11:13:13;;;;;;;9.77;7.35;;;;;;;33.60;30.00;95144.41;5064555;28;20453;-77
2023/06/23 11:15:40;;;;;;;9.63;6.78;;;;;;;33.61;29.60;95140.19;5065411;28;20454;-77
2023/06/23 11:18:05;;;;;;;8.48;7.20;;;;;;;33.72;30.05;95139.69;5065815;28;20024;-77
2023/06/23 11:20:32;;;;;;;12.13;7.30;;;;;;;33.77;29.71;95142.28;5065029;28;20033;-76
2023/06/23 11:23:08;;;;;;;10.77;6.60;;;;;;;33.83;29.64;95136.34;5064696;28;20031;-77